Terminal Aerodrome Forecast
Issued by NWS

Home | Current Version | Previous Version | Text Only | Print | Product List | Glossary On
Versions: 1 2 3 4 5 6 7 8 9 10 11 12 13 14 15 16 17 18 19 20 21 22 23
000
FTUS45 KGJT 290536
TAFCNY
TAF
KCNY 290536Z 2906/3006 25005KT P6SM BKN090
     FM291200 33003KT P6SM SCT050 OVC070
     FM291500 33004KT 5SM -SN BR SCT020 OVC040
     FM291800 33006KT P6SM VCSH SCT025 BKN050
     FM300000 VRB03KT P6SM SCT050 BKN100=

USA.gov is the U.S. government's official web portal to all federal, state and local government web resources and services.